createdAt,value
2023-02-13T00:00:15.491Z,102135.38
2023-02-13T00:04:17.247Z,102126.84
2023-02-13T00:08:19.100Z,102121.88
2023-02-13T00:12:20.908Z,102118.19
2023-02-13T00:16:22.687Z,102128.97
2023-02-13T00:20:24.524Z,102126.34
2023-02-13T00:24:26.445Z,102110.13
2023-02-13T00:28:28.460Z,102128.19
2023-02-13T00:32:31.048Z,102114.50
2023-02-13T00:36:32.857Z,102112.41
2023-02-13T00:40:34.592Z,102112.19
2023-02-13T00:44:36.650Z,102115.31
2023-02-13T00:48:38.582Z,102115.78
2023-02-13T00:52:41.884Z,102121.09
2023-02-13T00:56:43.868Z,102111.66
2023-02-13T01:00:47.314Z,102114.19
2023-02-13T01:04:49.141Z,102133.41
2023-02-13T01:08:51.070Z,102129.75
2023-02-13T01:12:53.270Z,102133.09
2023-02-13T01:16:55.088Z,102131.25
2023-02-13T01:21:05.917Z,102121.47
2023-02-13T01:25:09.016Z,102130.75
2023-02-13T01:29:14.083Z,102122.81
2023-02-13T01:33:15.911Z,102129.34
2023-02-13T01:37:18.042Z,102108.41
2023-02-13T01:41:19.842Z,102116.69
2023-02-13T01:45:30.274Z,102105.81
2023-02-13T01:49:32.175Z,102106.88
2023-02-13T01:53:41.249Z,102103.13
2023-02-13T01:57:44.011Z,102087.25
2023-02-13T02:01:45.938Z,102096.53
2023-02-13T02:05:47.797Z,102110.22
2023-02-13T02:09:49.585Z,102092.41
2023-02-13T02:13:51.541Z,102091.63
2023-02-13T02:17:53.355Z,102095.31
2023-02-13T02:22:35.073Z,102086.09
2023-02-13T02:27:04.058Z,102086.56
2023-02-13T02:31:44.167Z,102088.19
2023-02-13T02:36:17.167Z,102096.13
2023-02-13T02:40:26.768Z,102093.78
2023-02-13T02:45:22.709Z,102097.28
2023-02-13T02:49:43.090Z,102095.75
2023-02-13T02:54:28.536Z,102093.84
2023-02-13T02:59:01.670Z,102085.72
2023-02-13T03:03:42.364Z,102097.53
2023-02-13T03:07:44.294Z,102108.41
2023-02-13T03:12:08.555Z,102094.78
2023-02-13T03:16:39.055Z,102096.44
2023-02-13T03:21:10.603Z,102102.50
2023-02-13T03:25:30.388Z,102096.00
2023-02-13T03:30:07.565Z,102102.44
2023-02-13T03:34:14.931Z,102107.50
2023-02-13T03:38:28.468Z,102109.94
2023-02-13T03:42:35.324Z,102113.78
2023-02-13T03:46:42.022Z,102099.00
2023-02-13T03:50:43.831Z,102104.44
2023-02-13T03:55:16.197Z,102101.50
2023-02-13T03:59:24.566Z,102108.16
2023-02-13T04:03:34.912Z,102099.91
2023-02-13T04:07:36.807Z,102103.94
2023-02-13T04:11:50.512Z,102108.34
2023-02-13T04:16:01.814Z,102102.44
2023-02-13T04:20:03.924Z,102101.22
2023-02-13T04:24:06.762Z,102102.47
2023-02-13T04:28:08.684Z,102089.22
2023-02-13T04:32:11.565Z,102107.00
2023-02-13T04:36:13.379Z,102102.22
2023-02-13T04:40:15.293Z,102102.31
2023-02-13T04:44:17.082Z,102101.94
2023-02-13T04:48:18.966Z,102101.09
2023-02-13T04:52:20.821Z,102097.72
2023-02-13T04:56:22.770Z,102091.91
2023-02-13T05:00:26.806Z,102108.31
2023-02-13T05:04:29.194Z,102097.34
2023-02-13T05:08:31.006Z,102100.78
2023-02-13T05:12:33.005Z,102096.97
2023-02-13T05:16:34.949Z,102105.38
2023-02-13T05:20:36.842Z,102108.16
2023-02-13T05:24:38.730Z,102101.31
2023-02-13T05:28:59.082Z,102105.09
2023-02-13T05:33:00.904Z,102109.75
2023-02-13T05:37:03.010Z,102106.53
2023-02-13T05:41:05.133Z,102091.63
2023-02-13T05:45:08.139Z,102098.81
2023-02-13T05:49:10.591Z,102097.09
2023-02-13T05:53:12.767Z,102101.03
2023-02-13T05:57:14.655Z,102100.41
2023-02-13T06:01:19.609Z,102106.84
2023-02-13T06:05:21.577Z,102105.69
2023-02-13T06:09:23.425Z,102102.47
2023-02-13T06:13:40.860Z,102104.34
2023-02-13T06:17:42.886Z,102111.00
2023-02-13T06:21:44.746Z,102121.63
2023-02-13T06:25:46.533Z,102111.75
2023-02-13T06:29:48.406Z,102116.34
2023-02-13T06:33:50.241Z,102124.53
2023-02-13T06:37:52.121Z,102114.22
2023-02-13T06:41:54.099Z,102132.13
2023-02-13T06:45:56.154Z,102134.25
2023-02-13T06:49:57.991Z,102130.44
2023-02-13T06:53:59.782Z,102144.91
2023-02-13T06:58:01.538Z,102154.38
2023-02-13T07:02:03.498Z,102151.03
2023-02-13T07:06:05.584Z,102150.66
2023-02-13T07:10:10.612Z,102160.06
2023-02-13T07:14:12.416Z,102143.53
2023-02-13T07:18:14.286Z,102147.50
2023-02-13T07:22:16.176Z,102143.91
2023-02-13T07:26:18.107Z,102149.50
2023-02-13T07:30:20.025Z,102152.72
2023-02-13T07:34:21.821Z,102144.91
2023-02-13T07:38:23.601Z,102151.34
2023-02-13T07:42:25.383Z,102153.34
2023-02-13T07:46:27.308Z,102154.63
2023-02-13T07:50:29.393Z,102145.34
2023-02-13T07:54:31.946Z,102145.59
2023-02-13T07:58:33.890Z,102144.09
2023-02-13T08:02:35.644Z,102147.03
2023-02-13T08:06:40.561Z,102145.50
2023-02-13T08:11:00.670Z,102151.78
2023-02-13T08:15:02.812Z,102155.47
2023-02-13T08:19:05.006Z,102159.16
2023-02-13T08:23:13.040Z,102166.34
2023-02-13T08:27:19.260Z,102162.88
2023-02-13T08:31:30.441Z,102165.34
2023-02-13T08:35:32.420Z,102154.84
2023-02-13T08:39:34.188Z,102156.75
2023-02-13T08:43:36.091Z,102157.00
2023-02-13T08:47:41.419Z,102164.66
2023-02-13T08:51:43.180Z,102168.25
2023-02-13T08:55:58.491Z,102163.91
2023-02-13T09:00:00.465Z,102150.25
2023-02-13T09:04:02.243Z,102159.69
2023-02-13T09:08:04.407Z,102166.75
2023-02-13T09:12:09.170Z,102177.34
2023-02-13T09:16:11.347Z,102178.56
2023-02-13T09:20:14.119Z,102171.28
2023-02-13T09:24:19.084Z,102176.03
2023-02-13T09:28:20.979Z,102170.81
2023-02-13T09:32:22.904Z,102167.22
2023-02-13T09:36:24.828Z,102172.00
2023-02-13T09:40:49.681Z,102161.84
2023-02-13T09:44:54.547Z,102175.56
2023-02-13T09:48:57.762Z,102159.13
2023-02-13T09:52:59.943Z,102168.78
2023-02-13T09:57:17.391Z,102182.34
2023-02-13T10:01:44.126Z,102167.56
2023-02-13T10:06:00.701Z,102178.81
2023-02-13T10:10:11.062Z,102171.81
2023-02-13T10:14:25.021Z,102180.50
2023-02-13T10:18:36.214Z,102180.84
2023-02-13T10:22:51.438Z,102177.50
2023-02-13T10:26:53.347Z,102171.38
2023-02-13T10:31:16.097Z,102171.56
2023-02-13T10:35:33.685Z,102166.78
2023-02-13T10:39:35.444Z,102163.06
2023-02-13T10:44:15.898Z,102148.63
2023-02-13T10:49:13.776Z,102135.47
2023-02-13T10:53:57.129Z,102122.91
2023-02-13T10:58:50.290Z,102124.63
2023-02-13T11:02:52.469Z,102115.81
2023-02-13T11:07:04.173Z,102110.63
2023-02-13T11:11:35.156Z,102109.97
2023-02-13T11:15:40.253Z,102112.31
2023-02-13T11:19:53.328Z,102122.88
2023-02-13T11:23:57.517Z,102115.59
2023-02-13T11:28:18.001Z,102125.66
2023-02-13T11:32:38.176Z,102119.25
2023-02-13T11:36:40.024Z,102109.25
2023-02-13T11:40:45.158Z,102116.81
2023-02-13T11:44:58.138Z,102106.06
2023-02-13T11:49:07.173Z,102103.84
2023-02-13T11:53:31.152Z,102102.22
2023-02-13T11:57:37.478Z,102098.00
2023-02-13T12:01:39.274Z,102090.56
2023-02-13T12:05:41.077Z,102080.72
2023-02-13T12:09:42.910Z,102075.13
2023-02-13T12:13:44.708Z,102073.72
2023-02-13T12:17:48.574Z,102075.69
2023-02-13T12:22:18.251Z,102070.03
2023-02-13T12:27:00.058Z,102069.22
2023-02-13T12:31:30.542Z,102058.38
2023-02-13T12:35:43.989Z,102051.44
2023-02-13T12:40:31.133Z,102043.19
2023-02-13T12:44:46.003Z,102041.69
2023-02-13T12:49:51.652Z,102037.97
2023-02-13T12:54:29.176Z,102043.16
2023-02-13T12:58:46.640Z,102039.06
2023-02-13T13:03:23.825Z,102045.41
2023-02-13T13:07:55.813Z,102034.97
2023-02-13T13:12:22.329Z,102042.66
2023-02-13T13:16:34.126Z,102037.88
2023-02-13T13:20:52.242Z,102034.41
2023-02-13T13:25:20.602Z,102038.50
2023-02-13T13:29:48.937Z,102041.97
2023-02-13T13:33:50.712Z,102041.53
2023-02-13T13:38:14.887Z,102045.53
2023-02-13T13:42:19.520Z,102054.59
2023-02-13T13:46:44.622Z,102052.97
2023-02-13T13:50:46.688Z,102057.81
2023-02-13T13:54:51.654Z,102051.38
2023-02-13T13:58:54.869Z,102054.44
2023-02-13T14:03:12.534Z,102058.06
2023-02-13T14:07:16.154Z,102053.00
2023-02-13T14:11:39.661Z,102064.16
2023-02-13T14:15:42.521Z,102060.31
2023-02-13T14:19:51.461Z,102060.09
2023-02-13T14:23:53.775Z,102068.94
2023-02-13T14:28:03.573Z,102066.75
2023-02-13T14:32:27.947Z,102056.34
2023-02-13T14:36:44.389Z,102047.19
2023-02-13T14:40:52.839Z,102041.97
2023-02-13T14:44:57.165Z,102051.91
2023-02-13T14:49:06.553Z,102056.84
2023-02-13T14:53:17.468Z,102045.03
2023-02-13T14:57:39.299Z,102033.94
2023-02-13T15:01:50.604Z,102036.31
2023-02-13T15:05:59.190Z,102019.97
2023-02-13T15:10:30.078Z,102025.59
2023-02-13T15:14:36.776Z,102014.72
2023-02-13T15:18:52.614Z,102024.00
2023-02-13T15:22:54.597Z,102009.44
2023-02-13T15:27:04.837Z,102024.44
2023-02-13T15:31:23.806Z,102006.09
2023-02-13T15:35:34.273Z,102011.63
2023-02-13T15:39:36.129Z,101993.16
2023-02-13T15:43:56.162Z,101999.97
2023-02-13T15:47:59.117Z,101998.19
2023-02-13T15:52:13.566Z,101997.75
2023-02-13T15:56:15.510Z,102009.72
2023-02-13T16:00:32.209Z,102026.31
2023-02-13T16:04:34.073Z,102013.81
2023-02-13T16:08:38.715Z,102009.94
2023-02-13T16:12:46.715Z,102001.63
2023-02-13T16:17:01.796Z,102004.34
2023-02-13T16:21:04.241Z,101996.66
2023-02-13T16:25:17.621Z,102005.81
2023-02-13T16:29:22.221Z,101999.66
2023-02-13T16:33:32.026Z,102008.47
2023-02-13T16:37:34.653Z,101988.03
2023-02-13T16:41:36.498Z,101994.19
2023-02-13T16:45:38.561Z,102006.84
2023-02-13T16:49:40.596Z,102010.38
2023-02-13T16:53:42.385Z,102001.34
2023-02-13T16:57:45.243Z,102010.47
2023-02-13T17:01:47.047Z,102004.50
2023-02-13T17:05:48.915Z,102009.34
2023-02-13T17:09:57.044Z,101996.91
2023-02-13T17:13:58.974Z,101996.25
2023-02-13T17:18:00.794Z,102008.91
2023-02-13T17:22:03.227Z,101983.78
2023-02-13T17:26:05.638Z,102003.09
2023-02-13T17:30:08.661Z,101980.56
2023-02-13T17:34:12.149Z,101996.38
2023-02-13T17:38:14.086Z,101978.41
2023-02-13T17:42:28.245Z,101989.56
2023-02-13T17:46:30.518Z,101992.25
2023-02-13T17:50:34.841Z,101996.44
2023-02-13T17:54:39.295Z,102008.31
2023-02-13T17:58:42.073Z,101997.34
2023-02-13T18:02:48.193Z,101980.38
2023-02-13T18:06:58.222Z,101980.28
2023-02-13T18:11:00.434Z,101981.81
2023-02-13T18:15:02.895Z,101994.75
2023-02-13T18:19:06.078Z,102003.56
2023-02-13T18:23:08.794Z,102005.44
2023-02-13T18:27:13.754Z,102013.88
2023-02-13T18:31:16.769Z,102009.22
2023-02-13T18:35:19.068Z,102011.91
2023-02-13T18:39:21.051Z,102005.41
2023-02-13T18:43:22.971Z,102010.00
2023-02-13T18:47:24.818Z,102019.50
2023-02-13T18:51:26.751Z,102001.56
2023-02-13T18:55:28.521Z,101996.19
2023-02-13T18:59:30.548Z,101984.47
2023-02-13T19:03:33.628Z,101978.03
2023-02-13T19:07:36.787Z,101975.50
2023-02-13T19:11:39.615Z,101977.25
2023-02-13T19:15:41.518Z,101977.75
2023-02-13T19:19:47.125Z,101984.09
2023-02-13T19:23:49.638Z,101981.03
2023-02-13T19:27:52.780Z,101976.88
2023-02-13T19:31:57.157Z,101991.09
2023-02-13T19:36:00.468Z,101990.78
2023-02-13T19:40:02.532Z,102001.88
2023-02-13T19:44:05.417Z,102016.38
2023-02-13T19:48:12.379Z,102011.81
2023-02-13T19:52:14.313Z,102020.41
2023-02-13T19:56:16.422Z,102013.13
2023-02-13T20:00:18.761Z,102010.13
2023-02-13T20:04:20.721Z,102014.88
2023-02-13T20:08:22.711Z,102007.19
2023-02-13T20:12:27.196Z,102015.50
2023-02-13T20:16:33.172Z,102031.44
2023-02-13T20:20:35.212Z,102019.78
2023-02-13T20:24:37.300Z,102019.41
2023-02-13T20:28:40.540Z,102034.50
2023-02-13T20:32:42.857Z,102031.56
2023-02-13T20:36:44.782Z,102022.84
2023-02-13T20:40:46.947Z,102037.22
2023-02-13T20:44:49.104Z,102028.81
2023-02-13T20:48:51.088Z,102023.13
2023-02-13T20:52:52.910Z,102014.41
2023-02-13T20:56:54.765Z,102023.28
2023-02-13T21:00:56.603Z,102030.56
2023-02-13T21:04:58.616Z,102035.09
2023-02-13T21:09:00.912Z,102035.53
2023-02-13T21:13:05.271Z,102035.41
2023-02-13T21:17:07.664Z,102017.25
2023-02-13T21:21:13.106Z,102028.50
2023-02-13T21:25:15.686Z,102022.28
2023-02-13T21:29:17.905Z,102035.75
2023-02-13T21:33:19.767Z,102029.25
2023-02-13T21:37:22.800Z,102033.06
2023-02-13T21:41:24.790Z,102042.66
2023-02-13T21:45:27.304Z,102039.34
2023-02-13T21:49:29.235Z,102028.16
2023-02-13T21:53:31.498Z,102038.44
2023-02-13T21:57:34.926Z,102025.34
2023-02-13T22:01:37.711Z,102037.75
2023-02-13T22:05:46.841Z,102031.47
2023-02-13T22:09:50.388Z,102023.13
2023-02-13T22:13:56.754Z,102031.53
2023-02-13T22:17:59.220Z,102035.97
2023-02-13T22:22:01.194Z,102034.41
2023-02-13T22:26:04.091Z,102046.34
2023-02-13T22:30:06.875Z,102051.38
2023-02-13T22:34:10.521Z,102043.97
2023-02-13T22:38:12.546Z,102052.56
2023-02-13T22:42:14.508Z,102048.25
2023-02-13T22:46:30.541Z,102049.34
2023-02-13T22:50:32.636Z,102059.38
2023-02-13T22:54:34.553Z,102071.53
2023-02-13T22:58:36.753Z,102055.72
2023-02-13T23:02:38.763Z,102061.91
2023-02-13T23:06:40.784Z,102063.44
2023-02-13T23:10:42.866Z,102070.22
2023-02-13T23:14:44.668Z,102072.75
2023-02-13T23:18:54.637Z,102075.03
2023-02-13T23:22:57.458Z,102074.75
2023-02-13T23:26:59.814Z,102071.63
2023-02-13T23:31:03.226Z,102074.59
2023-02-13T23:35:05.913Z,102086.97
2023-02-13T23:39:07.690Z,102071.53
2023-02-13T23:43:09.508Z,102061.44
2023-02-13T23:47:11.405Z,102072.44
2023-02-13T23:51:13.425Z,102065.47
2023-02-13T23:55:15.349Z,102060.63
2023-02-13T23:59:17.952Z,102053.00
